Time;durP1;ratioP1;P1;durP2;ratioP2;P2;SDS_P1;SDS_P2;PMS_P1;PMS_P2;Temp;Humidity;BMP_temperature;BMP_pressure;BME280_temperature;BME280_humidity;BME280_pressure;Samples;Min_cycle;Max_cycle;Signal;HPM_P1;HPM_P2
2022/04/05 00:01:12;;;;;;;;;;;9.80;73.60;;;;;;4993783;28;20005;-53
2022/04/05 00:03:38;;;;;;;;;;;9.70;73.80;;;;;;4993845;28;19945;-54
2022/04/05 00:06:03;;;;;;;;;;;9.70;73.80;;;;;;4993452;28;19933;-55
2022/04/05 00:08:29;;;;;;;;;;;9.60;73.60;;;;;;4993190;28;19910;-55
2022/04/05 00:10:54;;;;;;;;;;;9.60;73.80;;;;;;4993405;28;19910;-55
2022/04/05 00:13:20;;;;;;;;;;;9.60;74.00;;;;;;4993512;28;20259;-55
2022/04/05 00:15:45;;;;;;;;;;;9.60;73.90;;;;;;4993470;28;19920;-52
2022/04/05 00:18:12;;;;;;;;;;;9.50;74.30;;;;;;4993371;28;20040;-52
2022/04/05 00:20:38;;;;;;;;;;;9.50;74.50;;;;;;4993242;28;19910;-53
2022/04/05 00:23:03;;;;;;;;;;;9.50;74.10;;;;;;4993575;28;19914;-53
2022/04/05 00:25:29;;;;;;;;;;;9.50;74.20;;;;;;4993239;28;19909;-53
2022/04/05 00:27:55;;;;;;;;;;;9.40;74.60;;;;;;4993598;28;20302;-53
2022/04/05 00:30:21;;;;;;;;;;;9.40;74.90;;;;;;4993054;28;19913;-53
2022/04/05 00:32:47;;;;;;;;;;;9.30;75.10;;;;;;4993429;28;19980;-54
2022/04/05 00:35:13;;;;;;;;;;;9.30;75.30;;;;;;4993312;28;19933;-54
2022/04/05 00:37:38;;;;;;;;;;;9.30;75.40;;;;;;4993080;28;19918;-54
2022/04/05 00:40:05;;;;;;;;;;;9.30;75.50;;;;;;4991988;28;19920;-54
2022/04/05 00:42:31;;;;;;;;;;;9.30;75.10;;;;;;4993278;28;20362;-54
2022/04/05 00:44:58;;;;;;;;;;;9.30;75.50;;;;;;4994339;28;19993;-54
2022/04/05 00:47:23;;;;;;;;;;;9.40;75.50;;;;;;4996668;28;19932;-54
2022/04/05 00:49:50;;;;;;;;;;;9.40;75.20;;;;;;4996533;28;20350;-54
2022/04/05 00:52:17;;;;;;;;;;;9.40;75.00;;;;;;4996588;28;19913;-55
2022/04/05 00:54:46;;;;;;;;;;;9.50;74.70;;;;;;4996895;28;20262;-54
2022/04/05 00:57:13;;;;;;;;;;;9.50;74.60;;;;;;4996569;28;19996;-54
2022/04/05 00:59:42;;;;;;;;;;;9.50;74.70;;;;;;4996559;28;19910;-53
2022/04/05 01:02:12;;;;;;;;;;;9.40;75.20;;;;;;4996662;28;20336;-55
2022/04/05 01:04:39;;;;;;;;;;;9.40;75.60;;;;;;4996359;28;20331;-56
2022/04/05 01:07:06;;;;;;;;;;;9.30;75.90;;;;;;4996259;28;19910;-55
2022/04/05 01:09:31;;;;;;;;;;;9.30;75.80;;;;;;4996353;28;19941;-54
2022/04/05 01:11:57;;;;;;;;;;;9.40;75.70;;;;;;4996126;28;19964;-52
2022/04/05 01:14:22;;;;;;;;;;;9.30;76.30;;;;;;4996331;28;19937;-55
2022/04/05 01:16:48;;;;;;;;;;;9.20;76.60;;;;;;4996323;28;19910;-53
2022/04/05 01:19:14;;;;;;;;;;;9.20;76.80;;;;;;4996324;28;19910;-55
2022/04/05 01:21:39;;;;;;;;;;;9.30;76.60;;;;;;4996097;28;19953;-54
2022/04/05 01:24:09;;;;;;;;;;;9.40;76.40;;;;;;4996123;28;19914;-53
2022/04/05 01:26:40;;;;;;;;;;;9.40;76.20;;;;;;4995783;28;19909;-54
2022/04/05 01:29:06;;;;;;;;;;;9.50;76.10;;;;;;4996008;28;19920;-52
2022/04/05 01:31:44;;;;;;;;;;;9.60;76.00;;;;;;4996000;28;20005;-54
2022/04/05 01:34:10;;;;;;;;;;;9.50;76.40;;;;;;4995626;28;20384;-53
2022/04/05 01:36:43;;;;;;;;;;;9.50;76.50;;;;;;4995954;28;19918;-52
2022/04/05 01:39:10;;;;;;;;;;;9.40;77.10;;;;;;4995284;28;19949;-55
2022/04/05 01:41:35;;;;;;;;;;;9.40;77.10;;;;;;4995878;28;19918;-53
2022/04/05 01:44:01;;;;;;;;;;;9.40;77.40;;;;;;4995847;28;20375;-52
2022/04/05 01:46:26;;;;;;;;;;;9.40;77.70;;;;;;4995672;28;19914;-54
2022/04/05 01:48:52;;;;;;;;;;;9.40;77.70;;;;;;4995391;28;20259;-52
2022/04/05 01:51:18;;;;;;;;;;;9.30;77.60;;;;;;4995517;28;19933;-54
2022/04/05 01:53:43;;;;;;;;;;;9.40;77.60;;;;;;4995364;28;19941;-53
2022/04/05 01:56:09;;;;;;;;;;;9.40;77.50;;;;;;4994159;28;20023;-53
2022/04/05 01:58:35;;;;;;;;;;;9.40;77.50;;;;;;4995463;28;19910;-55
2022/04/05 02:01:02;;;;;;;;;;;9.40;77.50;;;;;;4995069;28;20356;-52
2022/04/05 02:03:28;;;;;;;;;;;9.40;77.90;;;;;;4995243;28;20346;-52
2022/04/05 02:05:54;;;;;;;;;;;9.40;78.00;;;;;;4995249;28;19916;-53
2022/04/05 02:08:19;;;;;;;;;;;9.40;77.90;;;;;;4995179;28;19910;-52
2022/04/05 02:10:45;;;;;;;;;;;9.30;78.00;;;;;;4994861;28;19920;-52
2022/04/05 02:13:11;;;;;;;;;;;9.30;78.40;;;;;;4995034;28;19941;-55
2022/04/05 02:15:36;;;;;;;;;;;9.20;79.10;;;;;;4995107;28;20417;-54
2022/04/05 02:18:02;;;;;;;;;;;9.20;79.10;;;;;;4994922;28;19964;-58
2022/04/05 02:20:27;;;;;;;;;;;9.10;79.20;;;;;;4995013;28;19914;-54
2022/04/05 02:22:53;;;;;;;;;;;9.10;79.50;;;;;;4994552;28;20004;-53
2022/04/05 02:25:18;;;;;;;;;;;9.10;79.40;;;;;;4994777;28;20370;-53
2022/04/05 02:27:45;;;;;;;;;;;9.20;79.20;;;;;;4994626;28;19920;-52
2022/04/05 02:30:11;;;;;;;;;;;9.20;79.30;;;;;;4994625;28;19909;-54
2022/04/05 02:32:36;;;;;;;;;;;9.20;79.60;;;;;;4994719;28;20000;-54
2022/04/05 02:35:02;;;;;;;;;;;9.10;79.80;;;;;;4994529;28;19964;-54
2022/04/05 02:37:28;;;;;;;;;;;9.10;80.00;;;;;;4994393;28;19921;-54
2022/04/05 02:39:53;;;;;;;;;;;9.10;80.30;;;;;;4994588;28;20012;-54
2022/04/05 02:42:19;;;;;;;;;;;9.10;80.20;;;;;;4994507;28;19965;-54
2022/04/05 02:44:45;;;;;;;;;;;9.10;80.40;;;;;;4994584;28;19914;-53
2022/04/05 02:47:11;;;;;;;;;;;9.10;80.20;;;;;;4994502;28;19990;-57
2022/04/05 02:49:36;;;;;;;;;;;9.20;79.90;;;;;;4994376;28;19910;-54
2022/04/05 02:52:02;;;;;;;;;;;9.20;79.90;;;;;;4994244;28;20385;-53
2022/04/05 02:54:28;;;;;;;;;;;9.10;80.10;;;;;;4994295;28;20341;-52
2022/04/05 02:56:54;;;;;;;;;;;9.10;80.40;;;;;;4994519;28;19910;-53
2022/04/05 02:59:19;;;;;;;;;;;9.00;80.30;;;;;;4994300;28;19957;-52
2022/04/05 03:01:45;;;;;;;;;;;8.90;80.50;;;;;;4994551;28;19925;-52
2022/04/05 03:04:11;;;;;;;;;;;8.90;81.00;;;;;;4994127;28;19909;-54
2022/04/05 03:06:37;;;;;;;;;;;9.00;80.80;;;;;;4994301;28;19929;-68
2022/04/05 03:09:03;;;;;;;;;;;8.90;80.60;;;;;;4993454;28;19910;-54
2022/04/05 03:11:28;;;;;;;;;;;9.00;80.60;;;;;;4994498;28;19953;-55
2022/04/05 03:13:54;;;;;;;;;;;8.90;80.30;;;;;;4994005;28;19909;-55
2022/04/05 03:16:19;;;;;;;;;;;8.90;80.40;;;;;;4993864;28;19909;-53
2022/04/05 03:18:48;;;;;;;;;;;8.90;80.70;;;;;;4994750;28;20004;-54
2022/04/05 03:21:14;;;;;;;;;;;8.90;80.70;;;;;;4993886;28;19936;-54
2022/04/05 03:23:39;;;;;;;;;;;8.80;80.60;;;;;;4993984;28;19913;-53
2022/04/05 03:26:05;;;;;;;;;;;8.80;80.80;;;;;;4994010;28;20045;-53
2022/04/05 03:28:31;;;;;;;;;;;8.70;81.10;;;;;;4993931;28;19921;-52
2022/04/05 03:30:56;;;;;;;;;;;8.60;81.50;;;;;;4994050;28;19910;-52
2022/04/05 03:33:22;;;;;;;;;;;8.70;81.60;;;;;;4994005;28;19945;-53
2022/04/05 03:35:47;;;;;;;;;;;8.70;81.50;;;;;;4993538;28;19952;-54
2022/04/05 03:38:13;;;;;;;;;;;8.90;81.00;;;;;;4994156;28;19921;-55
2022/04/05 03:40:39;;;;;;;;;;;8.90;80.90;;;;;;4993915;28;19960;-55
2022/04/05 03:43:07;;;;;;;;;;;8.90;80.90;;;;;;4993789;28;19964;-54
2022/04/05 03:45:33;;;;;;;;;;;8.80;81.10;;;;;;4993506;28;19909;-54
2022/04/05 03:47:58;;;;;;;;;;;8.80;81.00;;;;;;4992531;28;19960;-55
2022/04/05 03:50:24;;;;;;;;;;;8.70;81.50;;;;;;4993405;28;19936;-53
2022/04/05 03:52:49;;;;;;;;;;;8.70;81.80;;;;;;4993666;28;19914;-54
2022/04/05 03:55:15;;;;;;;;;;;8.60;81.80;;;;;;4993549;28;19920;-53
2022/04/05 03:57:41;;;;;;;;;;;8.60;81.90;;;;;;4993694;28;19910;-53
2022/04/05 04:00:06;;;;;;;;;;;8.60;82.20;;;;;;4993395;28;19910;-52
2022/04/05 04:02:35;;;;;;;;;;;8.60;82.10;;;;;;4993245;28;20381;-55
2022/04/05 04:05:00;;;;;;;;;;;8.70;82.00;;;;;;4993355;28;19916;-53
2022/04/05 04:07:26;;;;;;;;;;;8.70;81.90;;;;;;4993452;28;19909;-53
2022/04/05 04:09:51;;;;;;;;;;;8.80;81.50;;;;;;4993637;28;19910;-52
2022/04/05 04:12:17;;;;;;;;;;;8.80;81.80;;;;;;4993344;28;20349;-53
2022/04/05 04:14:43;;;;;;;;;;;8.80;81.80;;;;;;4993693;28;19945;-53
2022/04/05 04:17:08;;;;;;;;;;;8.90;81.50;;;;;;4993527;28;19941;-53
2022/04/05 04:19:34;;;;;;;;;;;9.00;81.20;;;;;;4994042;28;19972;-52
2022/04/05 04:22:01;;;;;;;;;;;9.00;81.00;;;;;;4997281;28;19971;-54
2022/04/05 04:24:26;;;;;;;;;;;8.90;81.20;;;;;;4997036;28;20421;-53
2022/04/05 04:26:52;;;;;;;;;;;8.90;81.50;;;;;;4997296;28;19949;-59
2022/04/05 04:29:17;;;;;;;;;;;8.90;81.60;;;;;;4996681;28;19909;-54
2022/04/05 04:31:43;;;;;;;;;;;8.90;82.40;;;;;;4997236;28;19909;-54
2022/04/05 04:34:09;;;;;;;;;;;9.00;81.70;;;;;;4996850;28;20349;-52
2022/04/05 04:36:34;;;;;;;;;;;9.00;81.40;;;;;;4996794;28;19917;-53
2022/04/05 04:39:00;;;;;;;;;;;9.00;81.60;;;;;;4996557;28;19922;-54
2022/04/05 04:41:25;;;;;;;;;;;9.00;81.60;;;;;;4996962;28;20025;-53
2022/04/05 04:43:51;;;;;;;;;;;9.00;81.60;;;;;;4997003;28;19965;-54
2022/04/05 04:46:17;;;;;;;;;;;9.00;81.80;;;;;;4996727;28;19910;-53
2022/04/05 04:48:43;;;;;;;;;;;9.00;81.90;;;;;;4996370;28;19993;-53
2022/04/05 04:51:09;;;;;;;;;;;9.00;81.90;;;;;;4996459;28;20289;-54
2022/04/05 04:53:34;;;;;;;;;;;9.10;81.70;;;;;;4996917;28;19910;-54
2022/04/05 04:56:00;;;;;;;;;;;9.10;81.50;;;;;;4996489;28;20397;-54
2022/04/05 04:58:26;;;;;;;;;;;9.10;82.00;;;;;;4996356;28;19961;-54
2022/04/05 05:00:51;;;;;;;;;;;9.10;81.30;;;;;;4996473;28;20262;-53
2022/04/05 05:03:18;;;;;;;;;;;9.10;81.40;;;;;;4996250;28;19914;-54
2022/04/05 05:05:44;;;;;;;;;;;9.00;81.50;;;;;;4996280;28;19909;-54
2022/04/05 05:08:10;;;;;;;;;;;8.90;81.60;;;;;;4996112;28;20298;-54
2022/04/05 05:10:36;;;;;;;;;;;8.90;81.90;;;;;;4996211;28;19914;-54
2022/04/05 05:13:02;;;;;;;;;;;8.80;82.10;;;;;;4996113;28;19974;-54
2022/04/05 05:15:27;;;;;;;;;;;8.90;82.90;;;;;;4995881;28;20365;-54
2022/04/05 05:17:55;;;;;;;;;;;8.90;82.60;;;;;;4996018;28;20019;-54
2022/04/05 05:20:21;;;;;;;;;;;8.90;82.40;;;;;;4995800;28;20008;-53
2022/04/05 05:22:47;;;;;;;;;;;9.00;82.70;;;;;;4996120;28;20005;-53
2022/04/05 05:25:12;;;;;;;;;;;9.00;82.80;;;;;;4995894;28;19914;-54
2022/04/05 05:27:38;;;;;;;;;;;8.90;82.90;;;;;;4996208;28;19909;-53
2022/04/05 05:30:07;;;;;;;;;;;9.00;83.10;;;;;;4995648;28;20283;-53
2022/04/05 05:32:46;;;;;;;;;;;9.10;83.10;;;;;;4995794;28;19910;-54
2022/04/05 05:35:13;;;;;;;;;;;9.10;83.30;;;;;;4995818;28;20366;-53
2022/04/05 05:37:39;;;;;;;;;;;9.20;83.10;;;;;;4995586;28;19964;-53
2022/04/05 05:40:05;;;;;;;;;;;9.20;82.90;;;;;;4995606;28;19910;-53
2022/04/05 05:42:30;;;;;;;;;;;9.30;82.80;;;;;;4995497;28;19917;-54
2022/04/05 05:44:56;;;;;;;;;;;9.30;83.20;;;;;;4995792;28;20373;-55
2022/04/05 05:47:22;;;;;;;;;;;9.40;83.30;;;;;;4995617;28;19994;-54
2022/04/05 05:49:47;;;;;;;;;;;9.50;82.70;;;;;;4995554;28;20284;-54
2022/04/05 05:52:13;;;;;;;;;;;9.60;82.20;;;;;;4995194;28;20413;-55
2022/04/05 05:54:38;;;;;;;;;;;9.70;82.00;;;;;;4995198;28;19963;-60
2022/04/05 05:57:04;;;;;;;;;;;9.80;81.80;;;;;;4995529;28;19945;-54
2022/04/05 05:59:30;;;;;;;;;;;9.90;81.00;;;;;;4995022;28;19917;-53
2022/04/05 06:01:56;;;;;;;;;;;10.00;80.80;;;;;;4994879;28;20031;-54
2022/04/05 06:04:22;;;;;;;;;;;10.60;82.80;;;;;;4995042;28;20456;-54
2022/04/05 06:06:47;;;;;;;;;;;10.90;77.60;;;;;;4995316;28;19961;-54
2022/04/05 06:09:13;;;;;;;;;;;11.30;77.60;;;;;;4995102;28;19944;-56
2022/04/05 06:11:38;;;;;;;;;;;11.60;75.60;;;;;;4995045;28;19910;-53
2022/04/05 06:14:04;;;;;;;;;;;11.90;73.50;;;;;;4995037;28;19917;-56
2022/04/05 06:16:29;;;;;;;;;;;11.80;71.50;;;;;;4994986;28;19910;-55
2022/04/05 06:18:55;;;;;;;;;;;12.00;72.30;;;;;;4994781;28;19910;-56
2022/04/05 06:21:21;;;;;;;;;;;12.20;71.30;;;;;;4994769;28;20001;-53
2022/04/05 06:23:46;;;;;;;;;;;12.40;70.40;;;;;;4994862;28;19949;-54
2022/04/05 06:26:12;;;;;;;;;;;12.50;69.40;;;;;;4994724;28;19917;-61
2022/04/05 06:28:38;;;;;;;;;;;12.50;69.30;;;;;;4994769;28;19957;-54
2022/04/05 06:31:03;;;;;;;;;;;12.70;69.10;;;;;;4994402;28;19921;-56
2022/04/05 06:33:29;;;;;;;;;;;12.70;67.70;;;;;;4994752;28;20012;-56
2022/04/05 06:35:58;;;;;;;;;;;12.40;67.10;;;;;;4995150;28;19916;-57
2022/04/05 06:38:24;;;;;;;;;;;12.10;68.10;;;;;;4994867;28;19921;-56
2022/04/05 06:40:50;;;;;;;;;;;11.90;69.10;;;;;;4994890;28;19914;-55
2022/04/05 06:43:19;;;;;;;;;;;11.80;69.50;;;;;;4994464;28;19928;-56
2022/04/05 06:45:45;;;;;;;;;;;11.60;69.70;;;;;;4994657;28;20009;-55
2022/04/05 06:48:10;;;;;;;;;;;11.60;70.10;;;;;;4994736;28;19961;-55
2022/04/05 06:50:37;;;;;;;;;;;11.60;70.00;;;;;;4994976;28;19917;-55
2022/04/05 06:53:03;;;;;;;;;;;11.80;70.00;;;;;;4994599;28;19913;-55
2022/04/05 06:55:29;;;;;;;;;;;12.00;69.20;;;;;;4993817;28;19918;-53
2022/04/05 06:57:55;;;;;;;;;;;12.20;68.90;;;;;;4993785;28;20361;-54
2022/04/05 07:00:23;;;;;;;;;;;12.40;67.00;;;;;;4993642;28;19957;-55
2022/04/05 07:02:49;;;;;;;;;;;12.50;66.40;;;;;;4993509;28;19918;-54
2022/04/05 07:05:15;;;;;;;;;;;12.60;65.60;;;;;;4993559;28;19910;-53
2022/04/05 07:07:41;;;;;;;;;;;12.70;65.40;;;;;;4993656;28;19964;-54
2022/04/05 07:10:07;;;;;;;;;;;12.80;65.30;;;;;;4993875;28;20002;-53
2022/04/05 07:12:33;;;;;;;;;;;12.90;64.60;;;;;;4993912;28;19917;-53
2022/04/05 07:14:58;;;;;;;;;;;13.10;65.90;;;;;;4994030;28;19910;-55
2022/04/05 07:17:25;;;;;;;;;;;13.20;63.70;;;;;;4993874;28;19916;-55
2022/04/05 07:19:52;;;;;;;;;;;13.40;62.40;;;;;;4993788;28;20369;-54
2022/04/05 07:22:17;;;;;;;;;;;13.40;61.90;;;;;;4993806;28;19961;-56
2022/04/05 07:24:43;;;;;;;;;;;13.40;62.00;;;;;;4993992;28;19999;-54
2022/04/05 07:27:08;;;;;;;;;;;13.40;61.60;;;;;;4993694;28;19918;-57
2022/04/05 07:29:34;;;;;;;;;;;13.50;60.90;;;;;;4993662;28;20388;-55
2022/04/05 07:32:00;;;;;;;;;;;13.40;61.00;;;;;;4993834;28;20343;-55
2022/04/05 07:34:26;;;;;;;;;;;13.50;60.70;;;;;;4993732;28;19924;-55
2022/04/05 07:36:52;;;;;;;;;;;13.60;59.80;;;;;;4994170;28;19996;-56
2022/04/05 07:39:19;;;;;;;;;;;13.60;59.70;;;;;;4994045;28;19925;-54
2022/04/05 07:41:45;;;;;;;;;;;13.80;60.60;;;;;;4993859;28;19920;-54
2022/04/05 07:44:10;;;;;;;;;;;13.90;59.60;;;;;;4994463;28;19996;-56
2022/04/05 07:46:36;;;;;;;;;;;14.10;60.20;;;;;;4994435;28;19921;-54
2022/04/05 07:49:02;;;;;;;;;;;14.30;60.30;;;;;;4994133;28;20401;-54
2022/04/05 07:51:27;;;;;;;;;;;14.20;58.00;;;;;;4994075;28;19909;-54
2022/04/05 07:53:53;;;;;;;;;;;14.20;58.30;;;;;;4994758;28;20388;-54
2022/04/05 07:56:19;;;;;;;;;;;14.10;58.50;;;;;;4997653;28;20366;-54
2022/04/05 07:58:45;;;;;;;;;;;14.00;58.40;;;;;;4997341;28;20358;-56
2022/04/05 08:01:10;;;;;;;;;;;14.10;58.80;;;;;;4997232;28;19932;-54
2022/04/05 08:03:36;;;;;;;;;;;14.10;58.70;;;;;;4996793;28;19922;-54
2022/04/05 08:06:02;;;;;;;;;;;13.80;59.40;;;;;;4997347;28;20358;-58
2022/04/05 08:08:28;;;;;;;;;;;13.60;59.60;;;;;;4997413;28;19914;-54
2022/04/05 08:10:54;;;;;;;;;;;13.60;60.20;;;;;;4997579;28;20348;-54
2022/04/05 08:13:20;;;;;;;;;;;13.40;59.70;;;;;;4997329;28;19914;-63
2022/04/05 08:15:46;;;;;;;;;;;13.20;61.40;;;;;;4997384;28;19914;-58
2022/04/05 08:18:12;;;;;;;;;;;12.70;62.30;;;;;;4997246;28;19936;-55
2022/04/05 08:20:41;;;;;;;;;;;12.80;62.30;;;;;;4997262;28;19945;-57
2022/04/05 08:23:07;;;;;;;;;;;12.70;62.60;;;;;;4997011;28;19917;-58
2022/04/05 08:25:33;;;;;;;;;;;12.90;61.30;;;;;;4996824;28;19910;-58
2022/04/05 08:27:59;;;;;;;;;;;13.00;61.50;;;;;;4997128;28;20405;-65
2022/04/05 08:30:24;;;;;;;;;;;13.30;61.00;;;;;;4996983;28;19920;-55
2022/04/05 08:32:50;;;;;;;;;;;13.50;59.70;;;;;;4995754;28;19937;-55
2022/04/05 08:35:18;;;;;;;;;;;13.70;59.40;;;;;;4995933;28;19914;-54
2022/04/05 08:37:43;;;;;;;;;;;13.50;59.50;;;;;;4995891;28;19925;-54
2022/04/05 08:40:10;;;;;;;;;;;13.80;58.90;;;;;;4996197;28;20381;-54
2022/04/05 08:42:37;;;;;;;;;;;14.00;58.40;;;;;;4996166;28;20362;-54
2022/04/05 08:45:04;;;;;;;;;;;13.70;59.30;;;;;;4996062;28;19922;-54
2022/04/05 08:47:30;;;;;;;;;;;13.30;59.80;;;;;;4996588;28;19993;-54
2022/04/05 08:49:56;;;;;;;;;;;13.00;60.00;;;;;;4996084;28;19973;-54
2022/04/05 08:52:22;;;;;;;;;;;13.40;61.10;;;;;;4996446;28;19993;-54
2022/04/05 08:54:48;;;;;;;;;;;13.50;59.40;;;;;;4996559;28;19942;-55
2022/04/05 08:57:13;;;;;;;;;;;13.50;59.20;;;;;;4997503;28;19953;-57
2022/04/05 08:59:39;;;;;;;;;;;13.50;59.80;;;;;;4996947;28;19964;-56
2022/04/05 09:02:04;;;;;;;;;;;13.70;60.10;;;;;;4996916;28;19914;-56
2022/04/05 09:04:33;;;;;;;;;;;13.80;59.00;;;;;;4996835;28;19917;-59
2022/04/05 09:07:17;;;;;;;;;;;13.50;58.70;;;;;;4996159;28;19980;-55
2022/04/05 09:09:43;;;;;;;;;;;13.50;59.30;;;;;;4995506;28;20380;-55
2022/04/05 09:12:15;;;;;;;;;;;13.40;59.30;;;;;;4997016;28;19910;-56
2022/04/05 09:14:41;;;;;;;;;;;13.40;59.40;;;;;;4996611;28;20350;-55
2022/04/05 09:17:08;;;;;;;;;;;13.30;60.00;;;;;;4996736;28;19937;-55
2022/04/05 09:19:38;;;;;;;;;;;13.20;61.90;;;;;;4996133;28;19945;-55
2022/04/05 09:22:03;;;;;;;;;;;13.30;59.90;;;;;;4995799;28;20013;-55
2022/04/05 09:24:33;;;;;;;;;;;13.10;60.70;;;;;;4996624;28;19946;-55
2022/04/05 09:26:59;;;;;;;;;;;12.90;61.90;;;;;;4996351;28;19913;-55
2022/04/05 09:29:37;;;;;;;;;;;13.00;61.30;;;;;;4996497;28;19910;-55
2022/04/05 09:32:02;;;;;;;;;;;12.90;61.80;;;;;;4996240;28;20401;-58
2022/04/05 09:34:28;;;;;;;;;;;12.80;61.60;;;;;;4996158;28;19910;-55
2022/04/05 09:36:54;;;;;;;;;;;12.80;61.70;;;;;;4996465;28;19917;-56
2022/04/05 09:39:21;;;;;;;;;;;12.80;62.30;;;;;;4995740;28;19926;-55
2022/04/05 09:41:58;;;;;;;;;;;12.80;62.80;;;;;;4996142;28;19944;-55
2022/04/05 09:44:28;;;;;;;;;;;13.30;61.80;;;;;;4995978;28;20445;-55
2022/04/05 09:47:07;;;;;;;;;;;13.60;61.30;;;;;;4996138;28;19932;-55
2022/04/05 09:49:34;;;;;;;;;;;14.00;59.70;;;;;;4995763;28;19933;-54
2022/04/05 09:52:00;;;;;;;;;;;14.20;59.10;;;;;;4996052;28;19917;-54
2022/04/05 09:54:27;;;;;;;;;;;14.30;58.70;;;;;;4994646;28;19913;-62
2022/04/05 09:57:06;;;;;;;;;;;14.00;58.40;;;;;;4995855;28;19917;-58
2022/04/05 09:59:35;;;;;;;;;;;14.20;58.90;;;;;;4995928;28;19909;-67
2022/04/05 10:02:08;;;;;;;;;;;14.30;58.50;;;;;;4995963;28;19920;-65
2022/04/05 10:04:35;;;;;;;;;;;14.40;56.20;;;;;;4995945;28;19917;-58
2022/04/05 10:07:02;;;;;;;;;;;14.60;56.80;;;;;;4995821;28;20381;-54
2022/04/05 10:09:28;;;;;;;;;;;14.50;57.00;;;;;;4995672;28;19936;-54
2022/04/05 10:11:56;;;;;;;;;;;14.60;56.50;;;;;;4995704;28;20436;-59
2022/04/05 10:14:21;;;;;;;;;;;14.50;55.80;;;;;;4995704;28;19964;-61
2022/04/05 10:16:48;;;;;;;;;;;14.30;56.70;;;;;;4994955;28;19953;-71
2022/04/05 10:19:14;;;;;;;;;;;13.90;55.00;;;;;;4995155;28;19917;-55
2022/04/05 10:21:43;;;;;;;;;;;13.70;56.80;;;;;;4995412;28;19918;-55
2022/04/05 10:24:09;;;;;;;;;;;14.00;56.20;;;;;;4995455;28;19910;-58
2022/04/05 10:26:37;;;;;;;;;;;14.20;53.70;;;;;;4995323;28;19936;-69
2022/04/05 10:29:07;;;;;;;;;;;14.10;54.60;;;;;;4995405;28;20013;-55
2022/04/05 10:31:45;;;;;;;;;;;14.30;54.60;;;;;;4995616;28;20263;-54
2022/04/05 10:34:17;;;;;;;;;;;14.60;53.70;;;;;;4995191;28;19910;-55
2022/04/05 10:37:01;;;;;;;;;;;14.70;53.50;;;;;;4994988;28;19975;-54
2022/04/05 10:39:37;;;;;;;;;;;14.00;55.10;;;;;;5111223;27;19916;-55
2022/04/05 10:42:09;;;;;;;;;;;14.20;56.50;;;;;;5111533;28;20359;-56
2022/04/05 10:44:36;;;;;;;;;;;14.10;55.10;;;;;;5111557;28;19940;-55
2022/04/05 10:47:04;;;;;;;;;;;14.50;55.50;;;;;;5111509;28;19914;-55
2022/04/05 10:49:49;;;;;;;;;;;14.80;54.30;;;;;;5110955;28;19915;-55
2022/04/05 10:52:18;;;;;;;;;;;14.30;55.40;;;;;;5111316;28;19961;-54
2022/04/05 10:54:44;;;;;;;;;;;14.50;56.10;;;;;;5111662;28;19930;-55
2022/04/05 10:57:16;;;;;;;;;;;14.70;56.60;;;;;;5110937;28;19908;-55
2022/04/05 10:59:46;;;;;;;;;;;14.70;52.30;;;;;;5111269;28;19908;-55
2022/04/05 11:02:30;;;;;;;;;;;14.70;53.80;;;;;;5111055;28;19919;-56
2022/04/05 11:05:00;;;;;;;;;;;14.60;53.50;;;;;;5111029;28;19965;-55
2022/04/05 11:07:26;;;;;;;;;;;14.40;54.60;;;;;;5111183;28;19981;-56
2022/04/05 11:09:57;;;;;;;;;;;14.70;55.60;;;;;;5111114;28;20347;-64
2022/04/05 11:12:33;;;;;;;;;;;14.40;52.90;;;;;;5111057;28;20374;-55
2022/04/05 11:15:03;;;;;;;;;;;14.40;53.80;;;;;;5111121;28;19915;-55
2022/04/05 11:17:30;;;;;;;;;;;14.10;53.10;;;;;;5110938;28;19916;-55
2022/04/05 11:19:58;;;;;;;;;;;13.90;52.50;;;;;;5110785;28;20367;-59
2022/04/05 11:22:23;;;;;;;;;;;14.20;53.90;;;;;;5110910;28;19912;-55
2022/04/05 11:25:00;;;;;;;;;;;14.10;54.40;;;;;;5110597;28;19908;-55
2022/04/05 11:27:47;;;;;;;;;;;14.40;54.80;;;;;;5110770;28;19919;-58
2022/04/05 11:30:28;;;;;;;;;;;14.00;51.90;;;;;;5110305;28;19995;-54
2022/04/05 11:33:06;;;;;;;;;;;13.70;54.00;;;;;;5110514;28;20318;-60
2022/04/05 11:35:43;;;;;;;;;;;14.30;53.90;;;;;;5110650;28;20310;-57
2022/04/05 11:38:32;;;;;;;;;;;14.00;51.90;;;;;;5110430;28;19927;-54
2022/04/05 11:41:08;;;;;;;;;;;14.10;51.10;;;;;;5104811;28;20335;-56
2022/04/05 11:43:38;;;;;;;;;;;13.80;51.70;;;;;;5110460;28;20376;-56
2022/04/05 11:46:18;;;;;;;;;;;14.20;53.70;;;;;;5110300;28;19912;-54
2022/04/05 11:48:47;;;;;;;;;;;13.80;49.30;;;;;;5109661;28;19908;-55
2022/04/05 11:51:15;;;;;;;;;;;13.70;52.00;;;;;;5096247;28;19908;-56
2022/04/05 11:53:42;;;;;;;;;;;13.90;53.90;;;;;;5096655;28;19958;-61
2022/04/05 11:56:09;;;;;;;;;;;14.30;53.40;;;;;;5096553;28;19962;-54
2022/04/05 11:58:36;;;;;;;;;;;14.10;51.10;;;;;;5096829;28;20015;-54
2022/04/05 12:01:06;;;;;;;;;;;14.20;52.30;;;;;;5096609;28;19926;-54
2022/04/05 12:03:41;;;;;;;;;;;14.10;51.20;;;;;;5096089;28;19908;-61
2022/04/05 12:06:07;;;;;;;;;;;14.10;51.40;;;;;;5096318;28;19912;-56
2022/04/05 12:08:32;;;;;;;;;;;14.40;53.10;;;;;;5096232;28;20286;-55
2022/04/05 12:10:58;;;;;;;;;;;14.70;51.90;;;;;;5096201;28;19908;-54
2022/04/05 12:13:30;;;;;;;;;;;15.00;48.40;;;;;;5096586;28;19909;-55
2022/04/05 12:15:59;;;;;;;;;;;15.20;49.50;;;;;;5095845;28;20393;-53
2022/04/05 12:18:28;;;;;;;;;;;15.30;46.60;;;;;;5095991;28;19968;-55
2022/04/05 12:20:58;;;;;;;;;;;14.90;47.50;;;;;;5095393;28;19915;-56
2022/04/05 12:23:27;;;;;;;;;;;15.10;48.20;;;;;;5075973;28;19952;-63
2022/04/05 12:26:06;;;;;;;;;;;15.30;47.40;;;;;;5075350;28;19916;-55
2022/04/05 12:28:32;;;;;;;;;;;15.10;46.50;;;;;;5074965;28;19913;-56
2022/04/05 12:31:04;;;;;;;;;;;14.50;46.10;;;;;;5075322;28;20011;-54
2022/04/05 12:33:29;;;;;;;;;;;14.30;47.80;;;;;;5075187;28;19909;-55
2022/04/05 12:35:55;;;;;;;;;;;14.60;47.50;;;;;;5074976;28;19916;-56
2022/04/05 12:38:20;;;;;;;;;;;15.10;50.00;;;;;;5074812;28;20126;-56
2022/04/05 12:40:46;;;;;;;;;;;14.90;48.50;;;;;;5074906;28;19920;-55
2022/04/05 12:43:21;;;;;;;;;;;15.00;49.40;;;;;;5075085;28;19955;-57
2022/04/05 12:45:47;;;;;;;;;;;15.30;49.40;;;;;;5074822;28;19912;-56
2022/04/05 12:48:14;;;;;;;;;;;15.40;47.50;;;;;;5074761;28;19931;-64
2022/04/05 12:50:41;;;;;;;;;;;15.70;48.00;;;;;;5074724;28;19916;-58
2022/04/05 12:53:07;;;;;;;;;;;15.60;45.10;;;;;;5074771;28;19913;-53
2022/04/05 12:55:34;;;;;;;;;;;15.30;47.60;;;;;;5074708;28;20292;-56
2022/04/05 12:58:00;;;;;;;;;;;15.50;48.70;;;;;;5074647;28;19917;-54
2022/04/05 13:00:30;;;;;;;;;;;15.40;47.70;;;;;;5074149;28;19915;-55
2022/04/05 13:02:59;;;;;;;;;;;15.30;47.80;;;;;;5074005;28;20287;-55
2022/04/05 13:08:10;;;;;;;;;;;15.50;45.80;;;;;;5093598;28;19915;-60
2022/04/05 13:10:42;;;;;;;;;;;15.40;45.40;;;;;;5094164;28;20265;-54
2022/04/05 13:13:25;;;;;;;;;;;15.40;47.20;;;;;;5094463;28;19912;-54
2022/04/05 13:16:03;;;;;;;;;;;15.30;47.90;;;;;;5094098;28;19908;-55
2022/04/05 13:18:41;;;;;;;;;;;15.40;47.80;;;;;;5093949;28;19916;-60
2022/04/05 13:21:08;;;;;;;;;;;15.30;48.50;;;;;;5093665;28;20050;-62
2022/04/05 13:23:35;;;;;;;;;;;15.20;46.30;;;;;;5093806;28;19954;-70
2022/04/05 13:26:01;;;;;;;;;;;15.30;46.70;;;;;;5093993;28;20362;-57
2022/04/05 13:28:30;;;;;;;;;;;14.90;45.90;;;;;;5094040;28;19989;-53
2022/04/05 13:30:55;;;;;;;;;;;14.80;47.20;;;;;;5093887;28;19939;-68
2022/04/05 13:33:21;;;;;;;;;;;14.80;47.50;;;;;;5093684;28;19948;-54
2022/04/05 13:35:46;;;;;;;;;;;15.00;47.40;;;;;;5093682;28;19951;-55
2022/04/05 13:38:12;;;;;;;;;;;15.30;48.00;;;;;;5093583;28;19924;-55
2022/04/05 13:40:37;;;;;;;;;;;15.50;46.70;;;;;;5079554;28;19915;-55
2022/04/05 13:43:03;;;;;;;;;;;15.60;46.50;;;;;;5073577;28;19915;-56
2022/04/05 13:45:29;;;;;;;;;;;15.60;46.20;;;;;;5073632;28;19908;-55
2022/04/05 13:47:54;;;;;;;;;;;15.30;45.70;;;;;;5086123;28;19930;-57
2022/04/05 13:50:20;;;;;;;;;;;14.90;46.80;;;;;;5080841;28;19909;-55
2022/04/05 13:52:46;;;;;;;;;;;15.10;48.00;;;;;;5085304;28;19934;-57
2022/04/05 13:55:11;;;;;;;;;;;15.20;46.80;;;;;;5082187;28;19908;-54
2022/04/05 13:57:37;;;;;;;;;;;15.10;47.80;;;;;;5083740;28;20378;-53
2022/04/05 14:00:03;;;;;;;;;;;14.90;47.70;;;;;;5083768;28;19909;-54
2022/04/05 14:02:29;;;;;;;;;;;14.60;47.70;;;;;;5082369;28;19931;-56
2022/04/05 14:04:55;;;;;;;;;;;14.50;48.20;;;;;;5083854;28;20371;-56
2022/04/05 14:07:20;;;;;;;;;;;14.70;49.30;;;;;;5083303;28;20002;-56
2022/04/05 14:09:46;;;;;;;;;;;14.70;47.60;;;;;;5082061;28;19912;-57
2022/04/05 14:12:12;;;;;;;;;;;14.70;48.70;;;;;;5080001;28;20361;-54
2022/04/05 14:14:37;;;;;;;;;;;14.90;49.40;;;;;;5083028;28;19995;-57
2022/04/05 14:17:03;;;;;;;;;;;15.10;48.10;;;;;;5082692;28;20024;-59
2022/04/05 14:19:29;;;;;;;;;;;14.80;48.60;;;;;;5082180;28;19951;-55
2022/04/05 14:21:54;;;;;;;;;;;15.00;48.20;;;;;;5083036;28;19908;-55
2022/04/05 14:24:20;;;;;;;;;;;14.90;48.20;;;;;;5083770;28;20291;-55
2022/04/05 14:26:46;;;;;;;;;;;14.40;48.80;;;;;;5081811;28;19954;-55